ADDS METAR Data INFO
IDs: Format: Raw Decoded Include TAF

Data at: 0500 UTC 23 May 2017

KHBV 230435Z AUTO 00000KT 10SM BKN080 25/21 A2989 RMK AO2 T02470206
KHBV 230415Z AUTO 00000KT 10SM SCT065 OVC080 25/21 A2989 RMK AO2 T02490205
KHBV 230355Z AUTO 00000KT 10SM BKN080 25/21 A2988 RMK AO2 T02480205
KHBV 230335Z AUTO 00000KT 10SM SCT080 25/21 A2987 RMK AO2 T02500206
KHBV 230315Z AUTO 00000KT 10SM SCT085 26/21 A2986 RMK AO2 T02550206
KHBV 230255Z AUTO 00000KT 10SM SCT085 26/21 A2986 RMK AO2 T02600206
KHBV 230235Z AUTO 00000KT 10SM SCT038 SCT085 27/21 A2986 RMK AO2 T02650207
KHBV 230215Z AUTO 00000KT 10SM BKN038 OVC085 27/21 A2986 RMK AO2 T02670207
KHBV 230155Z AUTO 00000KT 10SM OVC085 27/21 A2985 RMK AO2 T02720206
KHBV 230135Z AUTO 00000KT 10SM BKN085 28/21 A2984 RMK AO2 T02750205
KHBV 230115Z AUTO 00000KT 10SM BKN085 28/21 A2984 RMK AO2 T02790205
KHBV 230055Z AUTO 00000KT 10SM OVC085 28/20 A2983 RMK AO2 T02840204
KHBV 230035Z AUTO 00000KT 10SM BKN085 29/20 A2983 RMK AO2 T02890202
KHBV 230015Z AUTO 00000KT 10SM OVC085 29/20 A2983 RMK AO2 T02900200
KHBV 222355Z AUTO 08007KT 10SM OVC085 29/20 A2983 RMK AO2 T02900201 10356 20104
KHBV 222335Z AUTO 00000KT 10SM OVC075 29/20 A2984 RMK AO2 T02900201
KHBV 222315Z AUTO 00000KT 10SM SCT055 OVC075 29/20 A2984 RMK AO2 T02900201
KHBV 222255Z AUTO 00000KT 10SM BKN055 OVC075 29/20 A2985 RMK AO2 T02900201
KHBV 222235Z AUTO 11003KT 10SM OVC055 29/20 A2985 RMK AO2 T02920201
KHBV 222215Z AUTO 11007KT 10SM SCT047 OVC055 30/20 A2985 RMK AO2 T02960196
KHBV 222155Z AUTO 10006KT 10SM SCT039 BKN045 OVC055 30/19 A2985 RMK AO2 T03020192
KHBV 222135Z AUTO 07006KT 10SM SCT038 BKN048 31/19 A2985 RMK AO2 T03050192
KHBV 222115Z AUTO 00000KT 10SM SCT036 BKN046 BKN080 30/19 A2986 RMK AO2 T02970191
KHBV 222055Z AUTO 08005KT 10SM BKN036 OVC080 29/19 A2987 RMK AO2 T02930191
KHBV 222035Z AUTO 09006KT 040V100 10SM SCT033 OVC080 29/19 A2987 RMK AO2 T02920191
KHBV 222015Z AUTO 00000KT 10SM SCT075 OVC080 29/19 A2988 RMK AO2 T02850193
KHBV 221955Z AUTO 06008KT 10SM BKN060 OVC075 28/19 A2989 RMK AO2 T02810193
KHBV 221935Z AUTO 07009KT 10SM OVC060 28/19 A2990 RMK AO2 T02770192
KHBV 221915Z AUTO 08008KT 10SM SCT038 SCT043 OVC070 28/19 A2991 RMK AO2 T02770191
KHBV 221855Z AUTO 08006KT 10SM SCT029 BKN041 OVC070 28/19 A2991 RMK AO2 T02770191
KHBV 221835Z AUTO 12007KT 060V140 10SM SCT030 BKN043 BKN055 28/19 A2992 RMK AO2 T02760191
KHBV 221815Z AUTO 09009KT 10SM SCT022 SCT033 SCT045 27/19 A2992 RMK AO2 T02740190
KHBV 221755Z AUTO 08008G15KT 10SM SCT022 SCT033 SCT046 27/19 A2993 RMK AO2 T02670188 10356 20104
KHBV 221735Z AUTO 11010KT 10SM SCT022 SCT036 BKN049 26/19 A2994 RMK AO2 LTG DSNT E T02570190
KHBV 221715Z AUTO 07009KT 10SM SCT020 SCT032 BKN038 25/19 A2995 RMK AO2 T02480189
KHBV 221655Z AUTO 08009KT 10SM SCT020 SCT032 BKN038 25/19 A2995 RMK AO2 T02460190
KHBV 221635Z AUTO 06008KT 10SM SCT020 SCT027 BKN032 24/19 A2996 RMK AO2 T02410189
KHBV 221615Z AUTO 07010KT 10SM SCT012 BKN020 BKN029 23/19 A2996 RMK AO2 T02330192
KHBV 221555Z AUTO 05008KT 10SM SCT010 BKN017 OVC024 23/20 A2997 RMK AO2 T02270195
KHBV 221535Z AUTO 04007KT 10SM SCT008 OVC015 22/20 A2998 RMK AO2 T02220196
KHBV 221515Z AUTO 00000KT 10SM BKN008 OVC015 22/20 A2998 RMK AO2 T02200196
KHBV 221455Z AUTO 04007KT 10SM SCT008 OVC013 22/20 A2998 RMK AO2 T02190198
KHBV 221435Z AUTO 04005KT 10SM SCT008 OVC013 22/20 A2997 RMK AO2 T02180196
KHBV 221415Z AUTO 00000KT 10SM BKN013 OVC034 22/20 A2996 RMK AO2 T02160195
KHBV 221355Z AUTO 03007KT 10SM OVC011 21/20 A2995 RMK AO2 T02130195
KHBV 221335Z AUTO 00000KT 10SM OVC009 21/20 A2995 RMK AO2 T02070199
KHBV 221315Z AUTO 00000KT 5SM BR OVC007 20/20 A2994 RMK AO2 T02020196
KHBV 221255Z AUTO 00000KT 4SM BR OVC005 20/19 A2994 RMK AO2 T01990194
KHBV 221235Z AUTO 00000KT 1 1/2SM BR OVC001 20/19 A2994 RMK AO2 T01970192
KHBV 221215Z AUTO 00000KT 3/4SM BR OVC001 20/19 A2994 RMK AO2 T01960191
KHBV 221155Z AUTO 03003KT 1 1/4SM BR OVC001 20/19 A2994 RMK AO2 70001 T01970192 10356 20104
KHBV 221135Z AUTO 00000KT 1 3/4SM BR OVC001 20/19 A2994 RMK AO2 T01980193
KHBV 221115Z AUTO 02004KT 2SM BR OVC001 20/20 A2994 RMK AO2 T02000195
KHBV 221055Z AUTO 00000KT 2SM BR OVC001 20/20 A2995 RMK AO2 T02000195
KHBV 221035Z AUTO 01005KT 2SM BR OVC001 20/19 A2994 RMK AO2 T01990194
KHBV 221015Z AUTO 00000KT 2 1/2SM BR OVC001 20/20 A2994 RMK AO2 T02000195
KHBV 220955Z AUTO 00000KT 1 3/4SM BR OVC001 20/19 A2995 RMK AO2 T01990194
KHBV 220935Z AUTO 00000KT 1 1/4SM BR OVC001 20/20 A2996 RMK AO2 T02000195
KHBV 220915Z AUTO 01008KT 1 1/4SM BR OVC001 20/20 A2996 RMK AO2 LTG DSNT NE T02020197
KHBV 220855Z AUTO 00000KT 1 1/4SM BR OVC001 20/20 A2996 RMK AO2 T02030198
KHBV 220835Z AUTO 00000KT 1 3/4SM BR OVC001 21/20 A2996 RMK AO2 T02050200
KHBV 220815Z AUTO 36005KT 1 1/2SM BR OVC001 21/20 A2996 RMK AO2 LTG DSNT N T02060201
KHBV 220755Z AUTO 34009KT 1 1/4SM BR OVC001 21/21 A2997 RMK AO2 LTG DSNT N T02130206
KHBV 220735Z AUTO 35010KT 2 1/2SM BR BKN003 BKN014 OVC120 23/23 A2998 RMK AO2 T02320225
KHBV 220715Z AUTO 00000KT 4SM BR SCT001 BKN012 OVC120 24/23 A2999 RMK AO2 T02360230
KHBV 220655Z AUTO 00000KT 4SM BR SCT001 BKN010 OVC110 24/23 A3000 RMK AO2 T02350229
KHBV 220635Z AUTO 00000KT 4SM BR SCT010 BKN110 24/23 A2998 RMK AO2 LTG DSNT N T02350228
KHBV 220615Z AUTO 00000KT 4SM BR SCT012 SCT017 BKN120 24/23 A2999 RMK AO2 T02360228
KHBV 220555Z AUTO 00000KT 5SM BR SCT010 BKN021 OVC040 24/23 A3000 RMK AO2 60001 T02360228 10356 20104 403560104
KHBV 220535Z AUTO 00000KT 5SM BR SCT010 SCT018 SCT040 24/23 A3000 RMK AO2 T02360228
KHBV 220515Z AUTO 00000KT 5SM BR SCT014 BKN045 24/23 A2999 RMK AO2 T02380230
KHBV 220455Z AUTO 00000KT 7SM BKN014 BKN043 BKN048 24/23 A3000 RMK AO2 LTG DSNT SW T02380229
KHBV 220435Z AUTO 00000KT 7SM SCT016 BKN024 BKN030 24/23 A3001 RMK AO2 T02370229
KHBV 220415Z AUTO 00000KT 5SM BR SCT007 SCT012 BKN024 24/23 A3000 RMK AO2 T02380229
KHBV 220355Z AUTO 00000KT 7SM BKN007 BKN016 BKN022 24/23 A2998 RMK AO2 T02380228
KHBV 220335Z AUTO 00000KT 7SM SCT007 SCT019 SCT024 24/23 A2999 RMK AO2 T02390227
KHBV 220315Z AUTO 00000KT 7SM SCT017 SCT023 BKN030 24/23 A2996 RMK AO2 LTG DSNT S T02400227
KHBV 220255Z AUTO 08007KT 7SM SCT021 SCT028 BKN034 24/23 A2996 RMK AO2 LTG DSNT SW P0001 60001 T02400227
KHBV 220235Z AUTO 06006KT 7SM SCT018 BKN026 BKN033 24/23 A2996 RMK AO2 LTG DSNT SW P0001 T02410226
KHBV 220215Z AUTO 00000KT 5SM RA SCT016 BKN024 OVC044 25/23 A2998 RMK AO2 LTG DSNT NE THRU SW P0001 T02450226
KHBV 220155Z AUTO 02007KT 7SM -TSRA BKN016 OVC022 25/22 A2999 RMK AO2 LTG DSNT ALQS T02510224
KHBV 220135Z AUTO 00000KT 10SM -VCTSRA BKN014 BKN020 BKN095 25/22 A2998 RMK AO2 LTG DSNT ALQS T02520222
KHBV 220115Z AUTO 11010G21KT 10SM TS CLR 25/22 A2993 RMK AO2 LTG DSNT ALQS T02530220
KHBV 220055Z AUTO 12016G21KT 10SM -TSRA SCT120 26/22 A2988 RMK AO2 LTG DSNT ALQS T02560218
KHBV 220035Z AUTO 11012G21KT 10SM VCTS SCT120 26/22 A2988 RMK AO2 LTG DSNT ALQS T02590216
KHBV 220015Z AUTO 10012G19KT 10SM CLR 26/21 A2988 RMK AO2 LTG DSNT SW THRU NW T02610213
KHBV 212355Z AUTO 11013G19KT 10SM CLR 27/21 A2987 RMK AO2 LTG DSNT SW THRU N T02650206 10356 20104
KHBV 212335Z AUTO 09013G17KT 10SM SCT050 27/21 A2988 RMK AO2 LTG DSNT SW THRU NE T02670205
KHBV 212315Z AUTO 10013G19KT 10SM -VCTSRA CLR 27/21 A2988 RMK AO2 LTG DSNT SW THRU NE T02680205
KHBV 212255Z AUTO 09012KT 10SM CLR 27/20 A2988 RMK AO2 LTG DSNT W AND NW T02720203
KHBV 212235Z AUTO 10011KT 10SM CLR 28/20 A2989 RMK AO2 LTG DSNT SW THRU NW T02760201
KHBV 212215Z AUTO 12009G16KT 10SM CLR 28/20 A2989 RMK AO2 LTG DSNT NE AND W T02790201
KHBV 212155Z AUTO 12011KT 10SM BKN090 28/20 A2987 RMK AO2 LTG DSNT NW T02810202
KHBV 212135Z AUTO 10012KT 10SM SCT100 28/21 A2987 RMK AO2 T02830205
KHBV 212115Z AUTO 10009KT 10SM VCTS SCT100 29/20 A2989 RMK AO2 LTG DSNT N T02860204
KHBV 212055Z AUTO 11011KT 10SM SCT100 29/20 A2990 RMK AO2 LTG DSNT NE AND NW T02890201
KHBV 212035Z AUTO 11013KT 10SM CLR 29/20 A2989 RMK AO2 T02920203
KHBV 212015Z AUTO 11012G17KT 10SM SCT038 30/21 A2991 RMK AO2 LTG DSNT NW T02950206
KHBV 211955Z AUTO 11011KT 10SM CLR 30/21 A2990 RMK AO2 T02960212
KHBV 211935Z AUTO 11010KT 10SM CLR 29/21 A2991 RMK AO2 T02930212
KHBV 211915Z AUTO 12013G17KT 10SM CLR 29/21 A2992 RMK AO2 LTG DSNT NW T02920212
KHBV 211855Z AUTO 11011KT 10SM CLR 29/21 A2993 RMK AO2 LTG DSNT NE T02910209
KHBV 211835Z AUTO 10011KT 10SM 29/21 A2994 RMK AO2 T02910208
KHBV 211815Z AUTO 12009G14KT 10SM SCT028 SCT090 SCT120 29/22 A2994 RMK AO2 T02920215
KHBV 211755Z AUTO 12011KT 10SM SCT034 30/21 A2995 RMK AO2 T02950209 10356 20104
KHBV 211735Z AUTO 14010KT 10SM SCT036 30/20 A2996 RMK AO2 T02960201
KHBV 211715Z AUTO 13010KT 10SM CLR 30/21 A2996 RMK AO2 T02950206


Page loaded:  05:00 UTC  |   10:00 PM Pacific  |   11:00 PM Mountain  |   12:00 AM Central  |   01:00 AM Eastern

 

ADVISORIES

FORECASTS

FORECASTS

OBSERVATIONS

USER TOOLS

ABOUT US